Time;durP1;ratioP1;P1;durP2;ratioP2;P2;SDS_P1;SDS_P2;PMS_P1;PMS_P2;Temp;Humidity;BMP_temperature;BMP_pressure;BME280_temperature;BME280_humidity;BME280_pressure;Samples;Min_cycle;Max_cycle;Signal;HPM_P1;HPM_P2
2024/01/31 00:00:19;;;;;;;18.90;9.82;;;;;;;1.59;65.18;101929.03;5056573;28;20323;-62
2024/01/31 00:02:45;;;;;;;11.50;7.07;;;;;;;1.42;65.26;101924.34;5056792;28;20041;-62
2024/01/31 00:05:13;;;;;;;15.77;7.85;;;;;;;1.42;66.30;101933.94;5056821;28;20116;-63
2024/01/31 00:07:39;;;;;;;14.57;8.50;;;;;;;1.54;66.60;101920.47;5056897;28;20143;-62
2024/01/31 00:10:04;;;;;;;12.75;8.00;;;;;;;1.66;66.52;101922.69;5056121;28;20045;-61
2024/01/31 00:12:30;;;;;;;18.67;10.75;;;;;;;1.67;66.32;101919.16;5057182;28;20033;-60
2024/01/31 00:14:55;;;;;;;16.08;8.82;;;;;;;1.73;65.52;101913.72;5056474;28;20036;-63
2024/01/31 00:17:21;;;;;;;23.35;11.48;;;;;;;1.75;65.79;101918.91;5056982;28;20040;-62
2024/01/31 00:19:46;;;;;;;23.33;11.55;;;;;;;1.72;65.95;101919.84;5056932;28;20040;-61
2024/01/31 00:22:11;;;;;;;28.55;13.40;;;;;;;1.68;66.18;101926.09;5057127;28;20073;-62
2024/01/31 00:24:37;;;;;;;25.23;12.45;;;;;;;1.67;66.25;101921.78;5056673;28;20242;-62
2024/01/31 00:27:02;;;;;;;24.95;12.90;;;;;;;1.74;66.00;101917.19;5056537;28;20368;-62
2024/01/31 00:29:28;;;;;;;27.73;14.45;;;;;;;1.74;65.62;101912.81;5056065;28;20236;-61
2024/01/31 00:31:53;;;;;;;28.65;14.63;;;;;;;1.76;66.18;101911.00;5056008;28;20078;-61
2024/01/31 00:34:19;;;;;;;28.52;17.67;;;;;;;1.80;66.22;101911.75;5056126;28;20041;-62
2024/01/31 00:36:44;;;;;;;27.25;14.00;;;;;;;1.83;65.46;101912.50;5056213;28;20029;-62
2024/01/31 00:39:10;;;;;;;31.05;15.52;;;;;;;1.71;65.49;101912.94;5056399;28;20051;-63
2024/01/31 00:41:35;;;;;;;24.00;13.75;;;;;;;1.56;66.32;101914.31;5059557;28;20192;-62
2024/01/31 00:44:01;;;;;;;26.13;13.07;;;;;;;1.56;66.78;101916.91;5060313;28;20087;-61
2024/01/31 00:46:26;;;;;;;29.67;14.05;;;;;;;1.65;66.41;101910.53;5060415;28;20037;-61
2024/01/31 00:48:52;;;;;;;35.22;17.08;;;;;;;1.73;66.68;101908.50;5060856;28;20040;-62
2024/01/31 00:51:17;;;;;;;31.80;17.55;;;;;;;1.64;66.85;101907.97;5059807;28;20108;-63
2024/01/31 00:53:43;;;;;;;33.75;16.77;;;;;;;1.64;67.02;101905.34;5060645;28;20082;-62
2024/01/31 00:56:09;;;;;;;33.45;17.63;;;;;;;1.71;66.65;101905.09;5060607;28;20056;-61
2024/01/31 00:58:34;;;;;;;26.63;13.75;;;;;;;1.76;66.10;101915.38;5060747;28;20048;-63
2024/01/31 01:01:00;;;;;;;27.58;13.77;;;;;;;1.71;66.10;101909.47;5060250;28;20060;-64
2024/01/31 01:03:25;;;;;;;27.05;13.50;;;;;;;1.62;65.99;101909.78;5059904;28;20254;-62
2024/01/31 01:05:51;;;;;;;20.00;12.20;;;;;;;1.49;66.21;101918.03;5060791;28;20231;-61
2024/01/31 01:08:16;;;;;;;31.35;13.82;;;;;;;1.43;66.86;101910.41;5059819;28;20311;-61
2024/01/31 01:10:42;;;;;;;21.73;12.23;;;;;;;1.47;66.98;101909.41;5060333;28;20232;-63
2024/01/31 01:13:07;;;;;;;26.40;12.52;;;;;;;1.53;66.17;101903.97;5060317;28;20099;-62
2024/01/31 01:15:33;;;;;;;26.40;12.80;;;;;;;1.50;65.88;101901.47;5060281;28;20033;-62
2024/01/31 01:17:58;;;;;;;24.95;13.85;;;;;;;1.50;66.33;101903.22;5059531;28;20029;-61
2024/01/31 01:20:23;;;;;;;25.58;13.73;;;;;;;1.21;66.40;101891.97;5059237;28;20033;-61
2024/01/31 01:22:49;;;;;;;27.90;15.55;;;;;;;1.32;66.36;101893.38;5059833;28;20374;-63
2024/01/31 01:25:15;;;;;;;24.63;13.18;;;;;;;1.33;66.64;101888.13;5059913;28;20495;-62
2024/01/31 01:27:45;;;;;;;24.42;13.20;;;;;;;1.28;67.18;101898.72;5059068;28;20103;-61
2024/01/31 01:30:11;;;;;;;20.08;12.20;;;;;;;1.37;66.72;101894.09;5059740;28;20078;-61
2024/01/31 01:32:37;;;;;;;24.73;12.45;;;;;;;1.39;66.38;101887.91;5059021;28;20025;-62
2024/01/31 01:35:02;;;;;;;19.02;10.82;;;;;;;1.46;65.89;101885.94;5059213;28;20037;-63
2024/01/31 01:37:28;;;;;;;20.88;11.18;;;;;;;1.40;66.31;101884.41;5059287;28;20091;-62
2024/01/31 01:39:53;;;;;;;22.75;10.75;;;;;;;1.42;66.13;101886.97;5059924;28;20036;-61
2024/01/31 01:42:19;;;;;;;22.85;11.50;;;;;;;1.50;65.21;101880.56;5059409;28;20144;-60
2024/01/31 01:44:45;;;;;;;23.38;12.02;;;;;;;1.49;64.80;101875.41;5059219;28;20033;-63
2024/01/31 01:47:12;;;;;;;22.45;12.10;;;;;;;1.52;64.45;101889.22;5058923;28;20025;-64
2024/01/31 01:49:38;;;;;;;21.58;10.57;;;;;;;1.27;65.21;101886.56;5059421;28;20075;-61
2024/01/31 01:52:04;;;;;;;23.70;13.63;;;;;;;1.11;66.02;101890.56;5058349;28;20044;-62
2024/01/31 01:54:31;;;;;;;32.70;16.60;;;;;;;1.21;64.77;101885.91;5059847;28;20041;-62
2024/01/31 01:56:58;;;;;;;24.35;14.15;;;;;;;1.18;64.57;101889.47;5058474;28;20041;-63
2024/01/31 01:59:24;;;;;;;37.50;17.30;;;;;;;1.22;64.57;101885.00;5058794;28;20192;-63
2024/01/31 02:01:50;;;;;;;29.48;14.13;;;;;;;1.06;64.64;101881.19;5058246;28;20040;-63
2024/01/31 02:04:17;;;;;;;26.55;13.25;;;;;;;1.17;64.08;101884.31;5058459;28;20220;-62
2024/01/31 02:06:43;;;;;;;18.48;11.70;;;;;;;1.15;63.35;101881.75;5057872;28;20050;-63
2024/01/31 02:09:08;;;;;;;24.88;11.98;;;;;;;1.12;63.22;101879.25;5059329;28;20323;-62
2024/01/31 02:11:35;;;;;;;21.65;12.00;;;;;;;1.12;64.00;101878.38;5058247;28;20102;-61
2024/01/31 02:14:00;;;;;;;22.35;11.68;;;;;;;1.08;63.29;101884.59;5058912;28;20238;-61
2024/01/31 02:16:25;;;;;;;22.00;11.88;;;;;;;1.05;63.02;101869.91;5058519;28;20075;-61
2024/01/31 02:18:51;;;;;;;19.85;11.50;;;;;;;0.91;63.51;101864.25;5056877;28;20357;-62
2024/01/31 02:21:16;;;;;;;23.70;11.52;;;;;;;1.01;63.52;101865.66;5057217;28;20041;-61
2024/01/31 02:23:42;;;;;;;19.73;10.68;;;;;;;0.96;62.61;101864.94;5057784;28;20367;-62
2024/01/31 02:26:07;;;;;;;23.10;11.38;;;;;;;0.99;62.77;101869.22;5057984;28;20041;-61
2024/01/31 02:28:33;;;;;;;19.10;10.43;;;;;;;1.04;63.04;101869.91;5058353;28;20037;-64
2024/01/31 02:30:58;;;;;;;20.05;11.07;;;;;;;1.01;62.61;101868.25;5056078;28;20221;-62
2024/01/31 02:33:24;;;;;;;25.60;13.68;;;;;;;1.05;63.21;101864.69;5058967;28;20040;-62
2024/01/31 02:35:49;;;;;;;30.40;14.63;;;;;;;1.03;63.53;101856.03;5056702;28;20040;-61
2024/01/31 02:38:15;;;;;;;24.98;13.65;;;;;;;1.04;64.04;101855.16;5058545;28;20100;-61
2024/01/31 02:40:40;;;;;;;21.27;11.05;;;;;;;0.99;64.29;101856.16;5057793;28;20086;-63
2024/01/31 02:43:05;;;;;;;18.30;10.80;;;;;;;0.80;64.77;101859.38;5057771;28;20127;-62
2024/01/31 02:45:31;;;;;;;22.23;12.32;;;;;;;0.88;64.56;101856.53;5057152;28;20246;-61
2024/01/31 02:47:56;;;;;;;22.60;12.93;;;;;;;1.00;63.90;101853.50;5057619;28;20029;-62
2024/01/31 02:50:22;;;;;;;21.42;11.60;;;;;;;1.07;63.61;101857.66;5056297;28;20040;-62
2024/01/31 02:52:48;;;;;;;21.17;9.85;;;;;;;1.07;63.97;101849.84;5057289;28;20031;-63
2024/01/31 02:55:14;;;;;;;18.83;10.68;;;;;;;1.09;63.43;101853.25;5055436;28;20040;-62
2024/01/31 02:57:39;;;;;;;19.38;9.82;;;;;;;0.90;63.15;101852.97;5057580;28;20033;-61
2024/01/31 03:00:06;;;;;;;20.35;10.88;;;;;;;0.61;64.22;101847.81;5055001;28;20064;-62
2024/01/31 03:02:32;;;;;;;17.50;10.18;;;;;;;0.59;65.77;101862.66;5055582;28;20032;-63
2024/01/31 03:04:57;;;;;;;19.42;11.00;;;;;;;0.53;65.81;101861.06;5056362;28;21063;-63
2024/01/31 03:07:23;;;;;;;25.48;14.57;;;;;;;0.44;66.29;101866.56;5054563;28;20207;-61
2024/01/31 03:09:48;;;;;;;22.92;11.75;;;;;;;0.24;67.41;101866.31;5058416;28;20208;-61
2024/01/31 03:12:14;;;;;;;20.38;11.60;;;;;;;0.24;67.78;101871.50;5055382;28;20350;-62
2024/01/31 03:14:40;;;;;;;40.33;20.83;;;;;;;0.33;67.68;101863.44;5057893;28;20035;-63
2024/01/31 03:17:05;;;;;;;33.78;16.95;;;;;;;0.40;67.61;101858.88;5055721;28;20088;-61
2024/01/31 03:19:32;;;;;;;30.23;15.85;;;;;;;0.43;67.03;101854.44;5057006;28;20284;-60
2024/01/31 03:21:58;;;;;;;27.80;14.80;;;;;;;0.41;66.96;101864.06;5056047;28;20064;-61
2024/01/31 03:24:24;;;;;;;23.17;14.20;;;;;;;0.27;67.77;101864.47;5057018;28;20047;-63
2024/01/31 03:26:50;;;;;;;27.00;13.63;;;;;;;0.31;68.47;101862.63;5055172;28;20343;-62
2024/01/31 03:29:16;;;;;;;24.15;14.68;;;;;;;0.42;68.52;101865.75;5056917;28;20032;-61
2024/01/31 03:31:41;;;;;;;26.80;14.82;;;;;;;0.58;68.02;101859.19;5056823;28;20029;-61
2024/01/31 03:34:07;;;;;;;30.38;15.60;;;;;;;0.71;67.50;101858.81;5056247;28;20045;-63
2024/01/31 03:36:33;;;;;;;37.47;18.88;;;;;;;0.76;67.25;101856.91;5056582;28;20854;-63
2024/01/31 03:38:59;;;;;;;29.35;16.10;;;;;;;0.87;66.80;101860.88;5056655;28;20074;-61
2024/01/31 03:41:26;;;;;;;25.10;14.00;;;;;;;0.88;66.74;101864.34;5057251;28;20033;-60
2024/01/31 03:43:51;;;;;;;27.20;15.18;;;;;;;0.92;66.42;101855.53;5055768;28;20036;-63
2024/01/31 03:46:17;;;;;;;29.25;14.85;;;;;;;0.93;66.62;101857.22;5057178;28;20072;-62
2024/01/31 03:48:43;;;;;;;31.27;16.92;;;;;;;0.91;66.67;101859.88;5055690;28;20033;-61
2024/01/31 03:51:21;;;;;;;30.25;17.48;;;;;;;0.95;66.30;101850.19;5056955;28;20043;-61
2024/01/31 03:53:48;;;;;;;36.30;19.00;;;;;;;0.98;66.23;101849.25;5054849;28;20340;-62
2024/01/31 03:56:14;;;;;;;40.97;20.40;;;;;;;0.98;66.29;101854.47;5056229;28;20348;-62
2024/01/31 03:58:40;;;;;;;41.45;21.95;;;;;;;0.87;66.36;101847.84;5054413;28;20296;-62
2024/01/31 04:01:06;;;;;;;40.95;23.20;;;;;;;0.75;66.41;101844.78;5056215;28;20032;-62
2024/01/31 04:03:31;;;;;;;33.83;19.20;;;;;;;0.62;66.66;101842.53;5055366;28;20051;-61
2024/01/31 04:05:57;;;;;;;31.75;17.33;;;;;;;0.56;66.82;101847.09;5056360;28;20032;-62
2024/01/31 04:08:22;;;;;;;29.70;16.50;;;;;;;0.49;66.55;101842.97;5055679;28;20025;-62
2024/01/31 04:10:48;;;;;;;24.25;15.07;;;;;;;0.54;66.54;101841.06;5055959;28;20086;-62
2024/01/31 04:13:13;;;;;;;25.45;15.25;;;;;;;0.52;66.72;101843.72;5056194;28;20112;-62
2024/01/31 04:15:39;;;;;;;25.17;14.65;;;;;;;0.46;66.85;101828.28;5055549;28;20051;-62
2024/01/31 04:18:04;;;;;;;23.42;14.05;;;;;;;0.47;66.69;101843.03;5055705;28;20103;-62
2024/01/31 04:20:30;;;;;;;22.45;12.38;;;;;;;0.50;66.89;101847.28;5056258;28;20079;-62
2024/01/31 04:22:56;;;;;;;21.73;12.05;;;;;;;0.48;66.73;101855.16;5057523;28;20033;-61
2024/01/31 04:25:21;;;;;;;18.33;11.32;;;;;;;0.42;66.76;101857.09;5055359;28;20115;-61
2024/01/31 04:27:46;;;;;;;23.08;13.02;;;;;;;0.25;67.42;101855.84;5056652;28;20066;-62
2024/01/31 04:30:12;;;;;;;22.92;12.18;;;;;;;0.14;67.88;101863.13;5055071;28;20104;-62
2024/01/31 04:32:38;;;;;;;19.55;10.35;;;;;;;0.10;68.06;101871.06;5056145;28;20068;-61
2024/01/31 04:35:07;;;;;;;14.90;9.75;;;;;;;0.19;67.87;101857.75;5055198;28;20059;-62
2024/01/31 04:37:32;;;;;;;20.05;9.55;;;;;;;-0.21;69.01;101863.22;5056555;28;20083;-62
2024/01/31 04:39:58;;;;;;;17.00;8.95;;;;;;;-0.15;68.96;101861.28;5055458;28;20040;-63
2024/01/31 04:42:23;;;;;;;16.73;9.68;;;;;;;-0.27;69.08;101858.16;5055478;28;20041;-64
2024/01/31 04:44:49;;;;;;;17.60;10.23;;;;;;;-0.60;70.61;101857.31;5056359;28;20086;-61
2024/01/31 04:47:15;;;;;;;16.95;9.50;;;;;;;-0.30;69.67;101858.25;5055397;28;20029;-61
2024/01/31 04:49:41;;;;;;;17.90;10.23;;;;;;;-0.27;69.50;101865.97;5055312;28;20045;-61
2024/01/31 04:52:06;;;;;;;18.20;10.70;;;;;;;-0.41;69.84;101867.22;5054022;28;20107;-62
2024/01/31 04:54:32;;;;;;;18.45;10.73;;;;;;;-0.57;71.36;101873.72;5056156;28;20109;-64
2024/01/31 04:56:57;;;;;;;18.08;9.63;;;;;;;-0.31;70.11;101865.22;5056259;28;20031;-61
2024/01/31 04:59:22;;;;;;;16.77;10.43;;;;;;;-0.12;69.52;101874.22;5055201;28;20100;-61
2024/01/31 05:01:48;;;;;;;19.77;13.25;;;;;;;-0.33;69.87;101880.03;5053803;28;20029;-62
2024/01/31 05:04:13;;;;;;;18.75;11.27;;;;;;;-0.21;69.57;101871.88;5056071;28;20060;-62
2024/01/31 05:06:39;;;;;;;17.75;9.95;;;;;;;-0.01;68.42;101876.53;5055310;28;20036;-63
2024/01/31 05:09:04;;;;;;;15.63;10.00;;;;;;;-0.17;68.26;101872.66;5056755;28;20124;-61
2024/01/31 05:11:30;;;;;;;17.17;10.13;;;;;;;0.02;67.99;101862.59;5054729;28;20037;-61
2024/01/31 05:13:55;;;;;;;20.13;9.93;;;;;;;-0.09;67.63;101862.88;5055034;28;20024;-62
2024/01/31 05:16:20;;;;;;;22.77;10.27;;;;;;;-0.28;68.24;101869.47;5055615;28;20051;-62
2024/01/31 05:18:46;;;;;;;22.80;12.52;;;;;;;-0.25;68.53;101875.47;5055579;28;20048;-62
2024/01/31 05:21:12;;;;;;;24.77;12.13;;;;;;;-0.32;68.53;101866.97;5054719;28;20041;-61
2024/01/31 05:23:39;;;;;;;23.65;10.27;;;;;;;-0.36;68.55;101865.34;5055130;28;20032;-61
2024/01/31 05:26:08;;;;;;;19.80;10.43;;;;;;;-0.22;68.61;101851.09;5056501;28;20390;-62
2024/01/31 05:28:34;;;;;;;18.52;10.63;;;;;;;-0.11;68.40;101852.50;5056233;28;20033;-60
2024/01/31 05:30:59;;;;;;;21.10;10.45;;;;;;;0.07;66.90;101861.56;5059701;28;20033;-64
2024/01/31 05:33:25;;;;;;;18.55;9.95;;;;;;;0.08;66.44;101862.44;5057723;28;20407;-62
2024/01/31 05:35:50;;;;;;;14.70;9.07;;;;;;;0.02;66.78;101860.00;5059646;28;20100;-62
2024/01/31 05:38:15;;;;;;;21.35;9.20;;;;;;;-0.45;67.87;101856.91;5057622;28;20033;-61
2024/01/31 05:40:42;;;;;;;17.67;9.43;;;;;;;-0.43;68.54;101852.53;5059043;28;20029;-61
2024/01/31 05:43:08;;;;;;;17.50;8.48;;;;;;;-0.42;68.34;101846.44;5058939;28;20033;-62
2024/01/31 05:45:35;;;;;;;17.10;10.02;;;;;;;-0.43;68.50;101848.19;5058556;28;20032;-61
2024/01/31 05:48:01;;;;;;;18.05;9.93;;;;;;;-0.42;68.50;101859.44;5059090;28;20551;-61
2024/01/31 05:50:27;;;;;;;20.45;11.57;;;;;;;-0.26;68.33;101852.94;5058682;28;20071;-61
2024/01/31 05:52:52;;;;;;;16.50;8.88;;;;;;;-0.14;67.64;101863.00;5058834;28;20028;-61
2024/01/31 05:55:18;;;;;;;20.00;9.75;;;;;;;-0.20;67.29;101860.56;5058511;28;20205;-63
2024/01/31 05:57:48;;;;;;;24.92;14.30;;;;;;;-0.27;67.75;101861.63;5058913;28;20029;-60
2024/01/31 06:00:14;;;;;;;34.22;17.55;;;;;;;-0.18;67.70;101863.97;5058801;28;20071;-61
2024/01/31 06:02:39;;;;;;;37.15;19.40;;;;;;;0.00;67.26;101867.84;5059436;28;20065;-61
2024/01/31 06:05:05;;;;;;;35.28;19.52;;;;;;;-0.04;66.94;101864.44;5057360;28;20045;-63
2024/01/31 06:07:31;;;;;;;27.98;15.32;;;;;;;0.15;66.67;101870.03;5059508;28;20041;-62
2024/01/31 06:09:56;;;;;;;25.58;11.93;;;;;;;0.05;65.85;101865.13;5052614;28;20387;-62
2024/01/31 06:12:21;;;;;;;33.28;15.73;;;;;;;0.08;66.35;101878.91;5059517;28;20040;-62
2024/01/31 06:14:47;;;;;;;25.77;12.80;;;;;;;0.13;66.32;101884.84;5056413;28;20051;-60
2024/01/31 06:17:14;;;;;;;22.27;13.18;;;;;;;0.18;66.20;101882.13;5060027;28;20047;-63
2024/01/31 06:19:40;;;;;;;25.77;13.82;;;;;;;0.27;65.93;101880.09;5051048;28;20056;-63
2024/01/31 06:22:05;;;;;;;26.95;16.58;;;;;;;0.41;65.63;101878.84;5059200;28;20047;-61
2024/01/31 06:24:30;;;;;;;28.42;16.23;;;;;;;0.43;65.41;101883.09;5055083;28;20044;-62
2024/01/31 06:26:56;;;;;;;30.13;15.35;;;;;;;0.44;65.90;101881.34;5058980;28;20028;-61
2024/01/31 06:29:21;;;;;;;27.13;14.80;;;;;;;0.52;66.03;101888.03;5060130;28;20330;-63
2024/01/31 06:31:47;;;;;;;33.55;17.58;;;;;;;0.48;66.14;101881.22;5058551;28;20037;-62
2024/01/31 06:34:14;;;;;;;31.38;17.70;;;;;;;0.25;67.38;101873.22;5057641;28;20048;-62
2024/01/31 06:36:39;;;;;;;30.50;15.43;;;;;;;-0.05;68.99;101878.38;5054339;28;20094;-61
2024/01/31 06:39:05;;;;;;;24.50;13.52;;;;;;;0.26;68.64;101875.78;5059875;28;20367;-61
2024/01/31 06:41:31;;;;;;;22.48;10.50;;;;;;;0.22;68.80;101887.19;5056344;28;20092;-62
2024/01/31 06:43:57;;;;;;;16.73;10.85;;;;;;;-0.07;70.14;101880.16;5059491;28;20052;-63
2024/01/31 06:46:22;;;;;;;18.52;9.77;;;;;;;0.02;70.83;101881.69;5058501;28;20037;-62
2024/01/31 06:48:48;;;;;;;21.45;10.88;;;;;;;-0.05;71.37;101880.97;5059350;28;20242;-61
2024/01/31 06:51:13;;;;;;;19.00;10.60;;;;;;;-0.02;71.32;101880.88;5054514;28;20342;-61
2024/01/31 06:53:39;;;;;;;17.52;10.02;;;;;;;0.20;71.34;101883.78;5058331;28;20033;-61
2024/01/31 06:56:05;;;;;;;20.92;10.45;;;;;;;0.45;70.25;101885.66;5055468;28;20041;-61
2024/01/31 06:58:31;;;;;;;19.70;9.95;;;;;;;0.81;69.50;101888.91;5076274;28;20040;-63
2024/01/31 07:00:59;;;;;;;17.98;9.38;;;;;;;1.05;68.24;101885.56;5068770;28;20040;-62
2024/01/31 07:03:25;;;;;;;16.58;9.75;;;;;;;0.94;67.78;101882.41;5055809;28;20227;-61
2024/01/31 07:05:50;;;;;;;17.55;10.50;;;;;;;1.19;67.31;101880.75;5055362;28;20041;-62
2024/01/31 07:08:16;;;;;;;16.08;9.65;;;;;;;1.02;68.23;101877.78;5056305;28;20029;-60
2024/01/31 07:10:41;;;;;;;19.65;8.63;;;;;;;1.03;67.69;101876.03;5055478;28;20082;-62
2024/01/31 07:13:07;;;;;;;16.35;8.40;;;;;;;1.11;68.01;101879.28;5055024;28;20029;-62
2024/01/31 07:15:32;;;;;;;12.45;7.88;;;;;;;1.37;68.22;101881.88;5054535;28;20331;-61
2024/01/31 07:17:58;;;;;;;13.02;8.25;;;;;;;1.68;66.96;101881.69;5054423;28;20100;-62
2024/01/31 07:20:23;;;;;;;15.55;8.52;;;;;;;1.91;65.37;101875.66;5056298;28;20032;-61
2024/01/31 07:22:48;;;;;;;13.30;8.23;;;;;;;1.93;64.79;101876.47;5055773;28;20029;-63
2024/01/31 07:25:15;;;;;;;13.63;7.05;;;;;;;2.12;64.87;101872.31;5056369;28;20040;-62
2024/01/31 07:27:41;;;;;;;15.00;8.05;;;;;;;1.63;65.76;101872.31;5054664;28;20039;-61
2024/01/31 07:30:10;;;;;;;14.55;8.02;;;;;;;1.91;64.97;101875.66;5056232;28;20099;-63
2024/01/31 07:32:36;;;;;;;14.07;7.30;;;;;;;2.23;64.33;101871.91;5054394;28;20032;-62
2024/01/31 07:35:01;;;;;;;13.68;6.60;;;;;;;2.39;63.95;101861.72;5055485;28;21067;-61
2024/01/31 07:37:26;;;;;;;12.82;7.60;;;;;;;2.48;63.79;101862.22;5054644;28;20033;-60
2024/01/31 07:39:56;;;;;;;13.27;7.30;;;;;;;2.64;64.34;101856.41;5055480;28;20033;-62
2024/01/31 07:42:21;;;;;;;13.13;6.75;;;;;;;2.78;63.44;101860.19;5054920;28;20412;-63
2024/01/31 07:44:47;;;;;;;15.07;7.95;;;;;;;2.83;64.04;101862.63;5054460;28;20045;-62
2024/01/31 07:47:13;;;;;;;16.35;7.85;;;;;;;2.92;63.52;101864.84;5054875;28;20033;-62
2024/01/31 07:49:40;;;;;;;15.43;8.13;;;;;;;3.10;62.98;101855.41;5054305;28;20041;-63
2024/01/31 07:52:06;;;;;;;14.55;7.88;;;;;;;3.09;62.74;101858.94;5055783;28;20297;-61
2024/01/31 07:54:31;;;;;;;13.65;8.13;;;;;;;3.31;62.64;101861.56;5055135;28;20037;-62
2024/01/31 07:56:57;;;;;;;14.93;8.90;;;;;;;3.32;63.07;101845.78;5056277;28;20044;-61
2024/01/31 07:59:22;;;;;;;13.98;7.88;;;;;;;3.43;62.30;101845.31;5053875;28;20082;-63
2024/01/31 08:01:48;;;;;;;15.63;9.18;;;;;;;3.53;62.00;101839.63;5055388;28;20032;-63
2024/01/31 08:04:13;;;;;;;11.68;7.05;;;;;;;3.77;60.91;101845.56;5054585;28;20557;-61
2024/01/31 08:06:42;;;;;;;14.95;7.32;;;;;;;3.77;59.79;101840.31;5054244;28;20021;-61
2024/01/31 08:09:07;;;;;;;11.35;8.07;;;;;;;3.90;60.26;101839.78;5054028;28;20342;-61
2024/01/31 08:11:33;;;;;;;15.55;9.23;;;;;;;3.68;60.72;101832.03;5054906;28;20033;-63
2024/01/31 08:13:58;;;;;;;15.23;7.55;;;;;;;3.87;60.15;101835.53;5054351;28;20025;-62
2024/01/31 08:16:24;;;;;;;10.05;6.22;;;;;;;3.83;58.63;101833.97;5054400;28;20087;-61
2024/01/31 08:18:49;;;;;;;10.27;5.57;;;;;;;3.62;58.22;101827.91;5071007;28;20075;-61
2024/01/31 08:21:14;;;;;;;11.02;6.57;;;;;;;3.77;59.34;101831.63;5052720;28;20041;-61
2024/01/31 08:23:40;;;;;;;13.45;6.53;;;;;;;3.77;58.85;101834.25;5052860;28;20037;-62
2024/01/31 08:26:07;;;;;;;10.40;6.57;;;;;;;3.84;58.77;101833.91;5055046;28;20041;-61
2024/01/31 08:28:32;;;;;;;13.20;7.10;;;;;;;3.71;59.06;101835.34;5054662;28;20036;-62
2024/01/31 08:30:58;;;;;;;12.13;6.57;;;;;;;4.08;59.01;101829.31;5054289;28;20044;-62
2024/01/31 08:33:23;;;;;;;14.43;7.00;;;;;;;4.25;57.81;101839.06;5054967;28;20041;-64
2024/01/31 08:35:49;;;;;;;10.23;5.70;;;;;;;4.18;58.05;101836.81;5054514;28;20590;-63
2024/01/31 08:38:14;;;;;;;11.57;6.68;;;;;;;3.96;58.26;101836.88;5053707;28;20052;-61
2024/01/31 08:40:40;;;;;;;11.73;6.80;;;;;;;4.11;58.99;101828.34;5053644;28;20047;-61
2024/01/31 08:43:05;;;;;;;10.50;6.57;;;;;;;4.31;58.45;101824.81;5054710;28;20325;-61
2024/01/31 08:45:30;;;;;;;8.57;5.85;;;;;;;4.42;58.39;101812.06;5052885;28;20323;-62
2024/01/31 08:47:57;;;;;;;11.38;6.45;;;;;;;4.41;58.55;101803.34;5054627;28;20029;-62
2024/01/31 08:50:22;;;;;;;12.02;6.05;;;;;;;4.64;58.93;101817.13;5067652;28;20041;-61
2024/01/31 08:52:48;;;;;;;10.30;5.65;;;;;;;4.64;58.17;101817.13;5054597;28;20363;-63
2024/01/31 08:55:14;;;;;;;12.80;6.60;;;;;;;4.70;58.62;101814.22;5055516;28;20029;-64
2024/01/31 08:57:39;;;;;;;11.68;6.70;;;;;;;4.70;58.27;101806.34;5054412;28;20035;-64
2024/01/31 09:00:05;;;;;;;9.82;7.38;;;;;;;4.81;57.84;101804.91;5055119;28;20043;-61
2024/01/31 09:02:31;;;;;;;16.23;7.55;;;;;;;4.90;57.70;101808.00;5054426;28;20394;-61
2024/01/31 09:04:56;;;;;;;14.00;7.78;;;;;;;4.92;57.70;101800.91;5058827;28;20041;-61
2024/01/31 09:07:22;;;;;;;13.85;7.22;;;;;;;5.00;57.82;101789.09;5056256;28;20038;-61
2024/01/31 09:09:47;;;;;;;13.13;8.50;;;;;;;5.00;57.77;101791.72;5058595;28;20040;-61
2024/01/31 09:12:12;;;;;;;14.98;8.15;;;;;;;5.16;57.47;101791.78;5057889;28;20029;-62
2024/01/31 09:14:38;;;;;;;12.57;7.28;;;;;;;5.21;56.59;101792.44;5058858;28;20041;-63
2024/01/31 09:17:05;;;;;;;14.85;7.32;;;;;;;5.19;55.81;101790.78;5057069;28;20223;-64
2024/01/31 09:19:30;;;;;;;11.52;6.47;;;;;;;4.98;56.70;101793.56;5058438;28;20098;-62
2024/01/31 09:21:56;;;;;;;12.55;7.07;;;;;;;5.17;56.33;101776.88;5057161;28;20350;-62
2024/01/31 09:24:21;;;;;;;11.93;6.50;;;;;;;5.28;55.94;101778.06;5058825;28;20047;-61
2024/01/31 09:26:47;;;;;;;14.25;7.57;;;;;;;5.26;55.56;101766.78;5057735;28;20029;-62
2024/01/31 09:29:12;;;;;;;12.38;6.70;;;;;;;5.33;55.47;101767.31;5057318;28;20037;-61
2024/01/31 09:31:38;;;;;;;12.30;6.70;;;;;;;5.38;54.71;101760.91;5057774;28;20035;-61
2024/01/31 09:34:03;;;;;;;14.10;8.07;;;;;;;5.44;54.69;101754.47;5058184;28;20024;-63
2024/01/31 09:36:28;;;;;;;12.30;7.18;;;;;;;5.41;54.21;101749.38;5058522;28;20319;-61
2024/01/31 09:38:54;;;;;;;11.32;7.53;;;;;;;5.58;54.57;101744.09;5056839;28;20033;-62
2024/01/31 09:41:20;;;;;;;11.43;7.70;;;;;;;5.56;53.70;101739.84;5058935;28;20033;-62
2024/01/31 09:43:46;;;;;;;10.95;7.00;;;;;;;5.58;53.22;101730.94;5057528;28;20056;-62
2024/01/31 09:46:13;;;;;;;12.13;6.75;;;;;;;5.58;52.82;101725.69;5058313;28;20040;-61
2024/01/31 09:48:39;;;;;;;10.70;6.70;;;;;;;5.36;53.47;101715.47;5055909;28;20381;-62
2024/01/31 09:51:06;;;;;;;12.13;6.93;;;;;;;5.57;53.10;101710.00;5056157;28;20052;-62
2024/01/31 09:53:36;;;;;;;10.05;6.10;;;;;;;5.63;52.94;101710.53;5055620;28;20037;-63
2024/01/31 09:56:04;;;;;;;9.50;5.78;;;;;;;5.63;52.47;101715.78;5057143;28;20048;-63
2024/01/31 09:58:30;;;;;;;9.50;5.82;;;;;;;5.64;52.44;101712.22;5057328;28;20263;-60
2024/01/31 10:00:59;;;;;;;10.23;6.30;;;;;;;5.87;51.98;101696.97;5055605;28;20033;-63
2024/01/31 10:03:24;;;;;;;10.18;6.20;;;;;;;5.83;51.21;101691.03;5056770;28;20064;-61
2024/01/31 10:05:49;;;;;;;12.70;6.55;;;;;;;5.85;50.32;101686.56;5056946;28;20033;-64
2024/01/31 10:08:15;;;;;;;12.23;6.82;;;;;;;5.98;50.48;101689.38;5056481;28;20048;-63
2024/01/31 10:10:41;;;;;;;31.58;13.63;;;;;;;5.96;50.23;101676.31;5057306;28;20086;-62
2024/01/31 10:13:07;;;;;;;10.88;5.63;;;;;;;5.75;49.92;101672.22;5056988;28;20033;-62
2024/01/31 10:15:32;;;;;;;10.35;6.03;;;;;;;5.87;50.63;101671.53;5057367;28;20403;-61
2024/01/31 10:17:58;;;;;;;10.00;5.38;;;;;;;5.89;49.37;101672.34;5054868;28;20036;-61
2024/01/31 10:20:24;;;;;;;9.00;5.93;;;;;;;6.06;50.00;101663.50;5056867;28;20116;-62
2024/01/31 10:22:50;;;;;;;18.13;11.13;;;;;;;6.03;50.94;101661.06;5054357;28;20040;-61
2024/01/31 10:25:17;;;;;;;8.93;5.80;;;;;;;6.17;50.51;101662.91;5056721;28;20159;-62
2024/01/31 10:27:46;;;;;;;9.65;5.60;;;;;;;6.21;49.14;101660.00;5055188;28;20052;-62
2024/01/31 10:30:11;;;;;;;9.32;6.65;;;;;;;6.21;49.87;101649.47;5056057;28;20033;-64
2024/01/31 10:32:41;;;;;;;10.10;5.88;;;;;;;6.21;50.25;101646.00;5053969;28;20032;-62
2024/01/31 10:35:07;;;;;;;11.40;6.07;;;;;;;6.26;48.26;101644.84;5054966;28;20419;-62
2024/01/31 10:37:33;;;;;;;11.60;6.13;;;;;;;6.25;47.94;101639.66;5056930;28;20055;-62
2024/01/31 10:40:00;;;;;;;10.60;6.13;;;;;;;6.25;47.41;101627.34;5056517;28;20356;-62
2024/01/31 10:42:26;;;;;;;11.07;5.93;;;;;;;6.28;47.03;101634.22;5056083;28;20033;-63
2024/01/31 10:44:52;;;;;;;13.00;6.68;;;;;;;6.34;47.09;101629.47;5055917;28;20076;-63
2024/01/31 10:47:18;;;;;;;11.30;6.55;;;;;;;6.43;47.43;101629.84;5054600;28;20043;-61
2024/01/31 10:49:43;;;;;;;11.75;5.75;;;;;;;6.33;47.40;101629.53;5056103;28;20104;-61
2024/01/31 10:52:13;;;;;;;13.15;6.55;;;;;;;6.22;47.40;101622.25;5077456;28;21105;-63
2024/01/31 10:54:44;;;;;;;9.90;6.30;;;;;;;6.40;48.10;101628.25;5055934;28;20063;-62
2024/01/31 10:57:11;;;;;;;11.93;6.18;;;;;;;6.53;46.79;101623.13;5057818;28;20045;-62
2024/01/31 10:59:37;;;;;;;9.60;5.90;;;;;;;6.52;47.13;101624.06;5055207;28;20320;-61
2024/01/31 11:02:03;;;;;;;8.38;5.30;;;;;;;6.20;47.84;101610.13;5056824;28;20029;-62
2024/01/31 11:04:28;;;;;;;13.15;6.72;;;;;;;6.42;47.36;101607.13;5055379;28;20106;-62
2024/01/31 11:07:00;;;;;;;12.88;7.07;;;;;;;6.55;47.76;101610.72;5057652;28;20104;-63
2024/01/31 11:09:26;;;;;;;8.50;5.35;;;;;;;6.49;46.99;101609.28;5056322;28;20400;-62
2024/01/31 11:12:01;;;;;;;9.93;6.22;;;;;;;6.44;47.50;101603.44;5056824;28;20024;-61